createdAt,value
2019-03-23T00:03:49.230Z,38.20
2019-03-23T00:07:57.784Z,39.20
2019-03-23T00:12:06.282Z,38.10
2019-03-23T00:16:14.774Z,36.90
2019-03-23T00:20:23.240Z,34.60
2019-03-23T00:24:31.747Z,38.20
2019-03-23T00:28:59.919Z,46.10
2019-03-23T00:33:08.409Z,49.80
2019-03-23T00:37:16.857Z,44.63
2019-03-23T00:41:25.337Z,56.73
2019-03-23T00:45:33.827Z,62.63
2019-03-23T00:49:42.310Z,68.73
2019-03-23T00:53:50.825Z,76.93
2019-03-23T00:57:59.298Z,78.40
2019-03-23T01:02:08.059Z,87.87
2019-03-23T01:06:16.503Z,82.07
2019-03-23T01:10:24.978Z,93.50
2019-03-23T01:14:33.429Z,97.10
2019-03-23T01:18:41.886Z,97.73
2019-03-23T01:22:50.385Z,102.47
2019-03-23T01:26:58.864Z,99.87
2019-03-23T01:31:07.639Z,106.50
2019-03-23T01:35:16.130Z,120.60
2019-03-23T01:39:24.841Z,139.50
2019-03-23T01:43:33.405Z,147.03
2019-03-23T01:47:41.995Z,131.10
2019-03-23T01:51:51.010Z,151.17
2019-03-23T01:55:59.532Z,142.50
2019-03-23T02:00:12.513Z,139.13
2019-03-23T02:04:20.951Z,154.00
2019-03-23T02:08:29.431Z,166.53
2019-03-23T02:12:37.999Z,144.67
2019-03-23T02:16:46.443Z,157.70
2019-03-23T02:20:54.918Z,154.03
2019-03-23T02:25:22.734Z,150.63
2019-03-23T02:29:31.183Z,158.33
2019-03-23T02:33:39.927Z,143.10
2019-03-23T02:37:48.414Z,141.80
2019-03-23T02:41:57.130Z,161.87
2019-03-23T02:46:05.613Z,180.97
2019-03-23T02:50:14.137Z,149.60
2019-03-23T02:54:22.623Z,136.90
2019-03-23T02:58:31.115Z,162.23
2019-03-23T03:02:39.662Z,151.67
2019-03-23T03:06:48.104Z,140.33
2019-03-23T03:10:56.579Z,127.83
2019-03-23T03:15:07.091Z,152.63
2019-03-23T03:19:15.833Z,156.07
2019-03-23T03:23:24.600Z,139.83
2019-03-23T03:27:33.126Z,140.83
2019-03-23T03:31:41.609Z,127.00
2019-03-23T03:35:50.164Z,139.07
2019-03-23T03:39:58.613Z,125.70
2019-03-23T03:44:07.191Z,141.47
2019-03-23T03:48:15.737Z,134.73
2019-03-23T03:52:24.226Z,129.37
2019-03-23T03:56:32.709Z,132.63
2019-03-23T04:00:41.185Z,122.87
2019-03-23T04:04:49.667Z,126.27
2019-03-23T04:08:58.113Z,117.87
2019-03-23T04:13:06.612Z,124.07
2019-03-23T04:17:15.432Z,143.50
2019-03-23T04:21:23.907Z,124.77
2019-03-23T04:25:32.395Z,126.33
2019-03-23T04:29:40.955Z,116.63
2019-03-23T04:33:49.421Z,133.47
2019-03-23T04:37:57.968Z,128.00
2019-03-23T04:42:06.472Z,109.20
2019-03-23T04:46:14.906Z,108.17
2019-03-23T04:50:23.379Z,112.73
2019-03-23T04:54:31.837Z,116.30
2019-03-23T04:58:40.324Z,127.23
2019-03-23T05:02:48.794Z,121.90
2019-03-23T05:06:57.273Z,112.27
2019-03-23T05:11:05.801Z,115.43
2019-03-23T05:15:14.411Z,121.60
2019-03-23T05:19:22.874Z,107.77
2019-03-23T05:23:31.342Z,119.53
2019-03-23T05:27:40.088Z,111.63
2019-03-23T05:31:48.564Z,108.07
2019-03-23T05:35:57.035Z,112.07
2019-03-23T05:40:07.359Z,95.80
2019-03-23T05:44:15.840Z,110.00
2019-03-23T05:48:24.310Z,105.40
2019-03-23T05:52:32.746Z,104.07
2019-03-23T05:56:41.245Z,106.23
2019-03-23T06:00:49.730Z,94.10
2019-03-23T06:04:58.179Z,106.37
2019-03-23T06:09:07.564Z,106.00
2019-03-23T06:13:16.114Z,96.97
2019-03-23T06:17:24.598Z,110.47
2019-03-23T06:21:33.058Z,106.60
2019-03-23T06:25:41.794Z,104.97
2019-03-23T06:29:50.269Z,110.63
2019-03-23T06:33:58.736Z,104.37
2019-03-23T06:38:07.218Z,102.73
2019-03-23T06:42:15.702Z,95.27
2019-03-23T06:46:24.183Z,116.23
2019-03-23T06:50:32.682Z,118.87
2019-03-23T06:54:41.416Z,97.27
2019-03-23T06:58:49.893Z,103.87
2019-03-23T07:02:58.380Z,120.92
2019-03-23T07:07:06.835Z,127.83
2019-03-23T07:11:15.306Z,112.70
2019-03-23T07:15:23.789Z,102.70
2019-03-23T07:19:32.253Z,108.53
2019-03-23T07:23:40.715Z,103.97
2019-03-23T07:27:49.210Z,105.90
2019-03-23T07:32:05.403Z,108.83
2019-03-23T07:36:07.928Z,104.93
2019-03-23T07:40:16.618Z,111.20
2019-03-23T07:44:25.110Z,106.97
2019-03-23T07:48:33.566Z,111.13
2019-03-23T07:52:42.054Z,113.87
2019-03-23T07:56:50.548Z,110.47
2019-03-23T08:00:59.008Z,111.77
2019-03-23T08:05:08.707Z,89.90
2019-03-23T08:09:20.678Z,106.57
2019-03-23T08:13:27.758Z,106.10
2019-03-23T08:17:36.195Z,86.70
2019-03-23T08:21:44.690Z,96.43
2019-03-23T08:25:53.409Z,111.20
2019-03-23T08:30:02.148Z,87.83
2019-03-23T08:34:10.631Z,100.13
2019-03-23T08:38:19.082Z,84.10
2019-03-23T08:42:27.562Z,85.17
2019-03-23T08:46:36.052Z,79.73
2019-03-23T08:50:44.545Z,94.13
2019-03-23T08:54:53.006Z,87.63
2019-03-23T08:59:01.482Z,74.33
2019-03-23T09:03:09.947Z,84.70
2019-03-23T09:07:18.452Z,75.37
2019-03-23T09:11:26.893Z,79.90
2019-03-23T09:15:35.417Z,82.13
2019-03-23T09:19:43.871Z,91.97
2019-03-23T09:23:52.364Z,95.93
2019-03-23T09:28:00.882Z,75.90
2019-03-23T09:32:09.359Z,62.80
2019-03-23T09:36:17.846Z,72.73
2019-03-23T09:40:26.317Z,70.40
2019-03-23T09:44:34.826Z,69.77
2019-03-23T09:48:43.635Z,83.73
2019-03-23T09:52:52.115Z,81.33
2019-03-23T09:57:00.682Z,89.23
2019-03-23T10:01:09.214Z,66.57
2019-03-23T10:05:17.951Z,78.40
2019-03-23T10:09:26.468Z,72.60
2019-03-23T10:13:34.946Z,74.40
2019-03-23T10:17:43.427Z,66.83
2019-03-23T10:21:51.872Z,66.60
2019-03-23T10:26:00.352Z,64.17
2019-03-23T10:30:10.688Z,60.27
2019-03-23T10:34:19.162Z,61.20
2019-03-23T10:38:27.611Z,59.63
2019-03-23T10:42:36.096Z,60.00
2019-03-23T10:46:44.576Z,62.20
2019-03-23T10:50:53.050Z,71.03
2019-03-23T10:55:01.532Z,62.93
2019-03-23T10:59:10.011Z,61.37
2019-03-23T11:03:18.466Z,69.33
2019-03-23T11:07:27.015Z,66.53
2019-03-23T11:11:35.463Z,65.87
2019-03-23T11:15:45.229Z,69.07
2019-03-23T11:19:53.749Z,61.47
2019-03-23T11:24:02.257Z,64.20
2019-03-23T11:28:10.810Z,68.30
2019-03-23T11:32:19.518Z,76.12
2019-03-23T11:36:28.004Z,62.90
2019-03-23T11:40:36.658Z,63.77
2019-03-23T11:44:45.176Z,74.27
2019-03-23T11:48:53.668Z,76.07
2019-03-23T11:53:02.120Z,71.40
2019-03-23T11:57:10.870Z,64.53
2019-03-23T12:01:19.591Z,80.27
2019-03-23T12:05:28.346Z,75.13
2019-03-23T12:09:36.847Z,67.17
2019-03-23T12:13:45.290Z,62.83
2019-03-23T12:17:54.043Z,71.77
2019-03-23T12:22:02.818Z,63.97
2019-03-23T12:26:11.318Z,61.50
2019-03-23T12:30:20.032Z,71.27
2019-03-23T12:34:28.475Z,61.73
2019-03-23T12:38:49.158Z,65.10
2019-03-23T12:42:57.896Z,64.47
2019-03-23T12:47:06.341Z,62.80
2019-03-23T12:51:14.830Z,58.20
2019-03-23T12:55:23.338Z,69.73
2019-03-23T12:59:32.162Z,60.90
2019-03-23T13:03:41.013Z,73.00
2019-03-23T13:07:49.562Z,70.30
2019-03-23T13:11:58.005Z,63.70
2019-03-23T13:16:06.486Z,68.03
2019-03-23T13:20:15.707Z,66.70
2019-03-23T13:24:24.293Z,64.43
2019-03-23T13:28:33.095Z,70.80
2019-03-23T13:32:41.830Z,66.97
2019-03-23T13:36:50.314Z,63.30
2019-03-23T13:40:59.022Z,80.60
2019-03-23T13:45:08.149Z,68.80
2019-03-23T13:49:16.902Z,67.37
2019-03-23T13:53:25.382Z,65.60
2019-03-23T13:57:33.859Z,78.50
2019-03-23T14:01:42.353Z,69.83
2019-03-23T14:05:50.908Z,72.80
2019-03-23T14:09:59.363Z,64.13
2019-03-23T14:14:08.098Z,68.03
2019-03-23T14:18:17.481Z,66.43
2019-03-23T14:22:26.014Z,70.20
2019-03-23T14:26:34.475Z,73.40
2019-03-23T14:30:42.955Z,71.13
2019-03-23T14:34:51.417Z,78.93
2019-03-23T14:38:59.893Z,66.97
2019-03-23T14:43:08.466Z,69.90
2019-03-23T14:47:16.939Z,68.57
2019-03-23T14:51:25.684Z,72.20
2019-03-23T14:55:34.131Z,77.37
2019-03-23T14:59:42.615Z,65.07
2019-03-23T15:03:51.067Z,76.23
2019-03-23T15:07:59.564Z,72.20
2019-03-23T15:12:14.888Z,67.77
2019-03-23T15:16:18.266Z,64.83
2019-03-23T15:20:26.719Z,66.47
2019-03-23T15:24:35.206Z,66.90
2019-03-23T15:28:43.964Z,70.50
2019-03-23T15:32:52.461Z,68.03
2019-03-23T15:37:00.927Z,66.13
2019-03-23T15:41:09.479Z,67.87
2019-03-23T15:45:17.989Z,59.33
2019-03-23T15:49:26.455Z,70.53
2019-03-23T15:53:35.004Z,66.97
2019-03-23T15:57:43.487Z,63.00
2019-03-23T16:01:52.007Z,66.13
2019-03-23T16:06:00.492Z,70.40
2019-03-23T16:10:11.366Z,61.80
2019-03-23T16:14:19.818Z,65.57
2019-03-23T16:18:28.303Z,65.30
2019-03-23T16:22:36.782Z,71.83
2019-03-23T16:26:45.286Z,70.07
2019-03-23T16:30:53.811Z,66.77
2019-03-23T16:35:02.271Z,63.63
2019-03-23T16:39:11.079Z,67.08
2019-03-23T16:43:19.526Z,65.93
2019-03-23T16:47:28.023Z,63.87
2019-03-23T16:51:36.514Z,63.83
2019-03-23T16:55:45.008Z,61.10
2019-03-23T16:59:53.534Z,55.03
2019-03-23T17:04:02.014Z,61.17
2019-03-23T17:08:10.487Z,62.70
2019-03-23T17:12:18.936Z,60.52
2019-03-23T17:16:27.715Z,71.97
2019-03-23T17:20:37.123Z,78.80
2019-03-23T17:24:45.616Z,73.00
2019-03-23T17:28:54.055Z,68.30
2019-03-23T17:33:02.826Z,64.97
2019-03-23T17:37:11.270Z,61.77
2019-03-23T17:41:20.107Z,59.50
2019-03-23T17:45:28.585Z,54.83
2019-03-23T17:49:37.083Z,44.27
2019-03-23T17:53:45.602Z,45.07
2019-03-23T17:57:54.120Z,47.13
2019-03-23T18:02:02.618Z,39.10
2019-03-23T18:06:11.104Z,39.40
2019-03-23T18:10:19.574Z,34.23
2019-03-23T18:14:28.054Z,35.73
2019-03-23T18:18:36.828Z,27.87
2019-03-23T18:22:45.664Z,29.20
2019-03-23T18:26:54.163Z,27.23
2019-03-23T18:31:02.625Z,45.63
2019-03-23T18:35:11.180Z,22.20
2019-03-23T18:39:19.982Z,23.37
2019-03-23T18:43:28.540Z,27.30
2019-03-23T18:47:37.440Z,22.13
2019-03-23T18:51:45.933Z,26.47
2019-03-23T18:55:54.406Z,28.17
2019-03-23T19:00:03.999Z,23.65
2019-03-23T19:04:12.556Z,27.27
2019-03-23T19:08:21.050Z,28.13
2019-03-23T19:12:29.552Z,27.57
2019-03-23T19:16:38.277Z,25.33
2019-03-23T19:20:46.767Z,22.60
2019-03-23T19:24:55.498Z,24.67
2019-03-23T19:29:04.062Z,24.83
2019-03-23T19:33:12.808Z,24.93
2019-03-23T19:37:21.283Z,26.90
2019-03-23T19:41:29.768Z,31.80
2019-03-23T19:45:38.214Z,25.37
2019-03-23T19:49:46.714Z,25.33
2019-03-23T19:53:55.207Z,33.03
2019-03-23T19:58:04.858Z,28.07
2019-03-23T20:02:13.323Z,24.60
2019-03-23T20:06:21.842Z,24.70
2019-03-23T20:10:30.327Z,30.40
2019-03-23T20:14:38.828Z,27.27
2019-03-23T20:18:47.390Z,25.27
2019-03-23T20:22:55.933Z,26.33
2019-03-23T20:27:04.420Z,26.60
2019-03-23T20:31:12.924Z,28.42
2019-03-23T20:35:21.718Z,23.00
2019-03-23T20:39:30.220Z,20.97
2019-03-23T20:43:38.697Z,21.63
2019-03-23T20:47:47.498Z,21.63
2019-03-23T20:51:56.166Z,22.13
2019-03-23T20:56:04.617Z,19.07
2019-03-23T21:00:13.104Z,20.00
2019-03-23T21:04:21.550Z,22.17
2019-03-23T21:08:30.037Z,20.20
2019-03-23T21:12:38.532Z,12.87
2019-03-23T21:16:47.143Z,18.90
2019-03-23T21:20:55.637Z,15.07
2019-03-23T21:25:06.472Z,16.60
2019-03-23T21:29:15.190Z,17.70
2019-03-23T21:33:23.683Z,16.93
2019-03-23T21:37:32.494Z,15.90
2019-03-23T21:41:40.980Z,15.60
2019-03-23T21:45:49.483Z,19.53
2019-03-23T21:49:58.271Z,21.73
2019-03-23T21:54:06.733Z,15.00
2019-03-23T21:58:15.206Z,16.63
2019-03-23T22:02:23.710Z,13.90
2019-03-23T22:06:32.175Z,16.27
2019-03-23T22:10:40.618Z,17.90
2019-03-23T22:14:49.112Z,19.90
2019-03-23T22:18:57.954Z,16.50
2019-03-23T22:23:06.446Z,12.27
2019-03-23T22:27:14.903Z,16.77
2019-03-23T22:31:23.377Z,13.47
2019-03-23T22:35:31.852Z,16.03
2019-03-23T22:39:40.614Z,16.87
2019-03-23T22:43:49.347Z,32.63
2019-03-23T22:47:58.205Z,15.50
2019-03-23T22:52:06.674Z,16.13
2019-03-23T22:56:15.135Z,13.90
2019-03-23T23:00:42.718Z,20.03
2019-03-23T23:04:51.516Z,17.67
2019-03-23T23:08:59.991Z,16.87
2019-03-23T23:13:08.472Z,15.30
2019-03-23T23:17:16.942Z,28.50
2019-03-23T23:21:25.417Z,25.20
2019-03-23T23:25:33.950Z,21.37
2019-03-23T23:29:43.063Z,16.48
2019-03-23T23:33:51.539Z,26.97
2019-03-23T23:37:59.977Z,19.00
2019-03-23T23:42:08.450Z,17.50
2019-03-23T23:46:16.927Z,15.43
2019-03-23T23:50:25.371Z,14.90
2019-03-23T23:54:33.822Z,13.83
2019-03-23T23:58:42.425Z,16.80
